Time;durP1;ratioP1;P1;durP2;ratioP2;P2;SDS_P1;SDS_P2;PMS_P1;PMS_P2;Temp;Humidity;BMP_temperature;BMP_pressure;BME280_temperature;BME280_humidity;BME280_pressure;Samples;Min_cycle;Max_cycle;Signal;HPM_P1;HPM_P2
2021/12/10 00:00:39;;;;;;;0.10;0.10;;;3.00;99.90;;;;;;5022250;28;20026;-71
2021/12/10 00:03:11;;;;;;;0.10;0.10;;;2.90;99.90;;;;;;5011012;28;20432;-72
2021/12/10 00:05:43;;;;;;;0.10;0.10;;;2.90;99.90;;;;;;5009515;28;20117;-72
2021/12/10 00:08:10;;;;;;;0.10;0.10;;;2.90;99.90;;;;;;5009710;28;20033;-71
2021/12/10 00:10:41;;;;;;;0.10;0.10;;;3.00;99.90;;;;;;5009496;28;20450;-71
2021/12/10 00:13:08;;;;;;;0.10;0.10;;;2.80;99.90;;;;;;5013494;28;20419;-71
2021/12/10 00:15:36;;;;;;;0.10;0.10;;;2.80;99.90;;;;;;5018542;28;20025;-72
2021/12/10 00:18:06;;;;;;;0.10;0.10;;;2.80;99.90;;;;;;5030616;28;20022;-72
2021/12/10 00:20:35;;;;;;;0.10;0.10;;;2.70;99.90;;;;;;5027819;28;20499;-72
2021/12/10 00:23:10;;;;;;;0.10;0.10;;;2.70;99.90;;;;;;5023923;28;20140;-72
2021/12/10 00:25:40;;;;;;;0.10;0.10;;;2.70;99.90;;;;;;5032562;28;20064;-72
2021/12/10 00:28:18;;;;;;;0.10;0.10;;;2.70;99.90;;;;;;5028547;28;20032;-72
2021/12/10 00:31:02;;;;;;;0.10;0.10;;;2.70;99.90;;;;;;5012557;28;20546;-72
2021/12/10 00:33:32;;;;;;;0.10;0.10;;;2.60;99.90;;;;;;5012399;28;20153;-72
2021/12/10 00:35:58;;;;;;;0.10;0.10;;;2.70;99.90;;;;;;5016303;28;20017;-72
2021/12/10 00:38:24;;;;;;;0.10;0.10;;;2.70;99.90;;;;;;5013870;28;20323;-72
2021/12/10 00:40:51;;;;;;;0.10;0.10;;;2.60;99.90;;;;;;5012059;28;20036;-72
2021/12/10 00:43:17;;;;;;;0.10;0.10;;;2.60;99.90;;;;;;5017718;28;20030;-72
2021/12/10 00:45:42;;;;;;;0.10;0.10;;;2.60;99.90;;;;;;5024105;28;20333;-73
2021/12/10 00:48:08;;;;;;;0.10;0.10;;;2.50;99.90;;;;;;5016957;28;20160;-72
2021/12/10 00:50:40;;;;;;;0.25;0.25;;;2.50;99.90;;;;;;5011861;28;20810;-72
2021/12/10 00:53:07;;;;;;;0.10;0.10;;;2.40;99.90;;;;;;5029239;28;20032;-73
2021/12/10 00:55:33;;;;;;;0.10;0.10;;;2.40;99.90;;;;;;5016901;28;20125;-72
2021/12/10 00:58:00;;;;;;;0.10;0.10;;;2.40;99.90;;;;;;5029638;28;20032;-72
2021/12/10 01:00:36;;;;;;;0.10;0.10;;;2.40;99.90;;;;;;5026570;28;20052;-71
2021/12/10 01:03:04;;;;;;;0.10;0.10;;;2.40;99.90;;;;;;5026388;28;20129;-72
2021/12/10 01:05:30;;;;;;;0.10;0.10;;;2.40;99.90;;;;;;5011857;28;20036;-72
2021/12/10 01:07:56;;;;;;;0.10;0.10;;;2.40;99.90;;;;;;5012257;28;20037;-72
2021/12/10 01:10:27;;;;;;;0.10;0.10;;;2.30;99.90;;;;;;5011761;28;20034;-72
2021/12/10 01:12:57;;;;;;;0.10;0.10;;;2.30;99.90;;;;;;5028953;28;20025;-72
2021/12/10 01:15:48;;;;;;;0.10;0.10;;;2.30;99.90;;;;;;5030264;28;20387;-72
2021/12/10 01:23:58;;;;;;;0.10;0.10;;;2.20;99.90;;;;;;5016763;28;20183;-72
2021/12/10 01:26:51;;;;;;;0.10;0.10;;;2.20;99.90;;;;;;5031635;28;20034;-72
2021/12/10 01:29:30;;;;;;;0.10;0.10;;;2.20;99.90;;;;;;5028227;28;20546;-72
2021/12/10 01:31:56;;;;;;;0.10;0.10;;;2.20;99.90;;;;;;5024326;28;20033;-72
2021/12/10 01:34:22;;;;;;;0.10;0.10;;;2.00;99.90;;;;;;5011522;28;20034;-72
2021/12/10 01:36:48;;;;;;;0.20;0.20;;;2.00;99.90;;;;;;5011773;28;20093;-72
2021/12/10 01:39:34;;;;;;;0.75;0.75;;;2.00;99.90;;;;;;5011298;28;20049;-72
2021/12/10 01:42:14;;;;;;;0.10;0.10;;;2.00;99.90;;;;;;5025396;28;20032;-72
2021/12/10 01:44:46;;;;;;;0.10;0.10;;;2.00;99.90;;;;;;5030884;28;20082;-72
2021/12/10 01:47:15;;;;;;;0.10;0.10;;;2.00;99.90;;;;;;5021551;28;20080;-72
2021/12/10 01:49:43;;;;;;;0.10;0.10;;;2.20;99.90;;;;;;5022897;28;20025;-72
2021/12/10 01:52:12;;;;;;;0.10;0.10;;;2.00;99.90;;;;;;5025086;28;20035;-72
2021/12/10 01:54:43;;;;;;;0.10;0.10;;;2.00;99.90;;;;;;5026318;28;20018;-72
2021/12/10 01:57:10;;;;;;;0.10;0.10;;;2.00;99.90;;;;;;5025922;28;20025;-72
2021/12/10 01:59:37;;;;;;;0.10;0.10;;;1.90;99.90;;;;;;5030173;28;20040;-72
2021/12/10 02:02:09;;;;;;;0.10;0.10;;;1.90;99.90;;;;;;5025863;28;20018;-72
2021/12/10 02:04:37;;;;;;;0.10;0.10;;;1.90;99.90;;;;;;5010757;28;20026;-72
2021/12/10 02:07:05;;;;;;;0.10;0.10;;;1.90;99.90;;;;;;5017998;28;20025;-72
2021/12/10 02:09:30;;;;;;;0.10;0.10;;;1.90;99.90;;;;;;5030419;28;20025;-72
2021/12/10 02:11:56;;;;;;;0.10;0.10;;;1.90;99.90;;;;;;5030637;28;20443;-72
2021/12/10 02:14:22;;;;;;;0.10;0.10;;;1.90;99.90;;;;;;5025002;28;20056;-72
2021/12/10 02:16:51;;;;;;;0.10;0.10;;;2.00;99.90;;;;;;5010958;28;20037;-72
2021/12/10 02:19:18;;;;;;;0.10;0.10;;;1.90;99.90;;;;;;5010746;28;20025;-71
2021/12/10 02:21:44;;;;;;;0.10;0.10;;;1.90;99.90;;;;;;5010358;28;20026;-71
2021/12/10 02:24:11;;;;;;;0.10;0.10;;;1.90;99.90;;;;;;5010595;28;20174;-72
2021/12/10 02:26:44;;;;;;;0.10;0.10;;;1.90;99.90;;;;;;5010621;28;20026;-72
2021/12/10 02:29:10;;;;;;;0.10;0.10;;;1.90;99.90;;;;;;5011472;28;20021;-72
2021/12/10 02:31:36;;;;;;;0.08;0.08;;;1.90;99.90;;;;;;5010380;28;20033;-72
2021/12/10 02:34:03;;;;;;;0.10;0.10;;;2.10;99.90;;;;;;5010027;28;20102;-72
2021/12/10 02:36:29;;;;;;;0.10;0.10;;;1.90;99.90;;;;;;5010665;28;20397;-72
2021/12/10 02:38:56;;;;;;;0.10;0.10;;;1.90;99.90;;;;;;5010926;28;20100;-72
2021/12/10 02:41:26;;;;;;;0.10;0.10;;;1.90;99.90;;;;;;5009953;28;20042;-72
2021/12/10 02:43:52;;;;;;;0.10;0.10;;;1.90;99.90;;;;;;5019797;28;20037;-71
2021/12/10 02:46:17;;;;;;;0.10;0.10;;;1.90;99.90;;;;;;5012016;28;20029;-72
2021/12/10 02:48:44;;;;;;;0.10;0.10;;;1.90;99.90;;;;;;5010675;28;20041;-72
2021/12/10 02:51:10;;;;;;;0.50;0.50;;;1.90;99.90;;;;;;5009648;28;20087;-71
2021/12/10 02:53:44;;;;;;;0.10;0.10;;;1.90;99.90;;;;;;5010175;28;20124;-72
2021/12/10 02:56:11;;;;;;;0.10;0.10;;;1.80;99.90;;;;;;5030158;28;20176;-72
2021/12/10 02:58:37;;;;;;;0.10;0.10;;;1.80;99.90;;;;;;5029452;28;20032;-72
2021/12/10 03:01:09;;;;;;;0.20;0.20;;;1.70;99.90;;;;;;5019434;28;20022;-72
2021/12/10 03:03:37;;;;;;;0.10;0.10;;;1.70;99.90;;;;;;5013396;28;20034;-72
2021/12/10 03:06:09;;;;;;;0.10;0.10;;;1.70;99.90;;;;;;5010070;28;20033;-71
2021/12/10 03:08:35;;;;;;;0.10;0.10;;;1.80;99.90;;;;;;5010735;28;20037;-72
2021/12/10 03:11:02;;;;;;;0.20;0.20;;;1.70;99.90;;;;;;5022064;28;20116;-71
2021/12/10 03:13:27;;;;;;;0.10;0.10;;;1.70;99.90;;;;;;5014496;28;20037;-72
2021/12/10 03:15:53;;;;;;;0.10;0.10;;;1.70;99.90;;;;;;5013632;28;20029;-72
2021/12/10 03:18:19;;;;;;;0.10;0.10;;;1.70;99.90;;;;;;5021990;28;20021;-72
2021/12/10 03:20:46;;;;;;;0.10;0.10;;;1.70;99.90;;;;;;5024328;23;20052;-78
2021/12/10 03:23:12;;;;;;;0.10;0.10;;;1.70;99.90;;;;;;5018796;28;20085;-78
2021/12/10 03:25:38;;;;;;;0.10;0.10;;;1.60;99.90;;;;;;5011434;28;20026;-79
2021/12/10 03:28:05;;;;;;;0.10;0.10;;;1.60;99.90;;;;;;5012898;28;20038;-79
2021/12/10 03:30:36;;;;;;;0.10;0.10;;;1.60;99.90;;;;;;5011453;28;20575;-78
2021/12/10 03:33:02;;;;;;;0.10;0.10;;;1.60;99.90;;;;;;5013601;28;20472;-79
2021/12/10 03:35:35;;;;;;;0.10;0.10;;;1.60;99.90;;;;;;5023054;28;20022;-78
2021/12/10 03:38:02;;;;;;;;;;;1.60;99.90;;;;;;5031060;28;20021;-79
2021/12/10 03:40:28;;;;;;;0.10;0.10;;;1.50;99.90;;;;;;5030743;28;19911;-79
2021/12/10 03:42:58;;;;;;;0.10;0.10;;;1.50;99.90;;;;;;5030929;28;20136;-79
2021/12/10 03:45:25;;;;;;;0.10;0.10;;;1.50;99.90;;;;;;5032317;28;20024;-78
2021/12/10 03:47:51;;;;;;;0.10;0.10;;;1.50;99.90;;;;;;5035088;28;20021;-78
2021/12/10 03:50:25;;;;;;;0.10;0.10;;;1.60;99.90;;;;;;5030292;28;20033;-78
2021/12/10 03:52:51;;;;;;;0.10;0.10;;;1.60;99.90;;;;;;5025812;28;20381;-79
2021/12/10 03:55:18;;;;;;;0.10;0.10;;;1.60;99.90;;;;;;5023982;28;20048;-79
2021/12/10 03:57:46;;;;;;;0.10;0.10;;;1.60;99.90;;;;;;5027734;28;20021;-78
2021/12/10 04:00:13;;;;;;;0.10;0.10;;;1.60;99.90;;;;;;5035392;28;20559;-78
2021/12/10 04:02:39;;;;;;;0.10;0.10;;;1.60;99.90;;;;;;5035801;28;20040;-78
2021/12/10 04:05:05;;;;;;;0.10;0.10;;;1.60;99.90;;;;;;5022716;28;20096;-78
2021/12/10 04:07:30;;;;;;;0.10;0.10;;;1.60;99.90;;;;;;5029381;28;20030;-78
2021/12/10 04:09:56;;;;;;;0.10;0.10;;;1.50;99.90;;;;;;5036996;28;20033;-77
2021/12/10 04:12:23;;;;;;;0.10;0.10;;;1.50;99.90;;;;;;5023835;28;20029;-78
2021/12/10 04:14:50;;;;;;;0.10;0.10;;;1.50;99.90;;;;;;5015014;28;20436;-78
2021/12/10 04:17:19;;;;;;;0.10;0.10;;;1.40;99.90;;;;;;5033201;28;20048;-79
2021/12/10 04:19:46;;;;;;;0.10;0.10;;;1.30;99.90;;;;;;5033238;28;20024;-78
2021/12/10 04:22:13;;;;;;;0.10;0.10;;;1.40;99.90;;;;;;5030718;28;20025;-79
2021/12/10 04:24:41;;;;;;;0.10;0.10;;;1.10;99.90;;;;;;5023046;28;20105;-78
2021/12/10 04:27:09;;;;;;;0.10;0.10;;;1.10;99.90;;;;;;5034318;28;20026;-78
2021/12/10 04:29:35;;;;;;;0.10;0.10;;;1.10;99.90;;;;;;5030852;28;20101;-78
2021/12/10 04:32:03;;;;;;;0.10;0.10;;;1.00;99.90;;;;;;5018205;28;20104;-79
2021/12/10 04:34:30;;;;;;;0.10;0.10;;;1.00;99.90;;;;;;5023740;28;20341;-78
2021/12/10 04:36:57;;;;;;;0.10;0.10;;;1.00;99.90;;;;;;5034191;28;20045;-78
2021/12/10 04:39:24;;;;;;;0.10;0.10;;;1.00;99.90;;;;;;5033344;28;20052;-78
2021/12/10 04:41:51;;;;;;;0.10;0.10;;;0.90;99.90;;;;;;5031199;28;20022;-78
2021/12/10 04:44:17;;;;;;;0.10;0.10;;;0.90;99.90;;;;;;5027096;28;20018;-78
2021/12/10 04:46:43;;;;;;;0.10;0.10;;;0.90;99.90;;;;;;5034206;28;20112;-78
2021/12/10 04:49:14;;;;;;;0.88;0.60;;;1.00;99.90;;;;;;5017326;28;20033;-78
2021/12/10 04:51:44;;;;;;;0.10;0.10;;;0.90;99.90;;;;;;5024462;28;20037;-78
2021/12/10 04:54:10;;;;;;;0.10;0.10;;;1.00;99.90;;;;;;5031482;28;20057;-78
2021/12/10 04:56:38;;;;;;;0.10;0.10;;;1.00;99.90;;;;;;5032950;28;20060;-78
2021/12/10 04:59:06;;;;;;;0.10;0.10;;;1.00;99.90;;;;;;5029594;28;20087;-78
2021/12/10 05:01:31;;;;;;;0.10;0.10;;;1.10;99.90;;;;;;5033274;28;20075;-77
2021/12/10 05:03:58;;;;;;;0.10;0.10;;;1.00;99.90;;;;;;5015929;28;20022;-78
2021/12/10 05:06:24;;;;;;;0.10;0.10;;;1.00;99.90;;;;;;5013214;28;20021;-78
2021/12/10 05:08:50;;;;;;;0.10;0.10;;;0.90;99.90;;;;;;5013570;28;20026;-77
2021/12/10 05:11:16;;;;;;;0.10;0.10;;;0.90;99.90;;;;;;5025641;28;20467;-78
2021/12/10 05:13:44;;;;;;;0.10;0.10;;;1.00;99.90;;;;;;5033208;28;20044;-78
2021/12/10 05:16:12;;;;;;;0.10;0.10;;;0.90;99.90;;;;;;5028353;28;20032;-78
2021/12/10 05:18:40;;;;;;;0.10;0.10;;;1.00;99.90;;;;;;5012217;28;20022;-78
2021/12/10 05:21:09;;;;;;;0.10;0.10;;;0.80;99.90;;;;;;5012972;28;20668;-78
2021/12/10 05:23:35;;;;;;;0.47;0.47;;;0.90;99.90;;;;;;5013153;28;20072;-78
2021/12/10 05:26:01;;;;;;;0.10;0.10;;;0.80;99.90;;;;;;5017744;28;20021;-78
2021/12/10 05:28:27;;;;;;;0.10;0.10;;;0.90;99.90;;;;;;5026062;28;20397;-78
2021/12/10 05:30:55;;;;;;;0.10;0.10;;;0.90;99.90;;;;;;5023990;28;20038;-78
2021/12/10 05:33:24;;;;;;;0.10;0.10;;;0.90;99.90;;;;;;5024637;28;20075;-78
2021/12/10 05:35:51;;;;;;;0.10;0.10;;;0.90;99.90;;;;;;5023200;28;20024;-78
2021/12/10 05:38:18;;;;;;;0.10;0.10;;;0.90;99.90;;;;;;5030756;28;20022;-78
2021/12/10 05:40:46;;;;;;;0.10;0.10;;;0.90;99.90;;;;;;5031345;28;20048;-78
2021/12/10 05:43:11;;;;;;;0.10;0.10;;;0.90;99.90;;;;;;5031918;28;20021;-78
2021/12/10 05:45:38;;;;;;;0.10;0.10;;;0.80;99.90;;;;;;5030907;28;20128;-79
2021/12/10 05:48:04;;;;;;;0.10;0.10;;;0.80;99.90;;;;;;5034430;28;20029;-78
2021/12/10 05:50:30;;;;;;;0.10;0.10;;;0.90;99.90;;;;;;5036194;28;20055;-79
2021/12/10 05:52:56;;;;;;;0.10;0.10;;;0.80;99.90;;;;;;5015255;28;20025;-78
2021/12/10 05:55:22;;;;;;;0.10;0.10;;;0.70;99.90;;;;;;5021790;28;20559;-78
2021/12/10 05:57:48;;;;;;;0.10;0.10;;;0.70;99.90;;;;;;5012467;28;20519;-79
2021/12/10 06:00:21;;;;;;;0.10;0.10;;;0.70;99.90;;;;;;5025773;28;20045;-78
2021/12/10 06:02:47;;;;;;;0.10;0.10;;;0.70;99.90;;;;;;5029904;28;20036;-76
2021/12/10 06:05:14;;;;;;;0.10;0.10;;;0.80;99.90;;;;;;5030227;28;20030;-79
2021/12/10 06:07:40;;;;;;;0.10;0.10;;;0.90;99.90;;;;;;5030630;28;20034;-79
2021/12/10 06:10:09;;;;;;;0.10;0.10;;;0.90;99.90;;;;;;5030404;28;20029;-78
2021/12/10 06:12:35;;;;;;;0.13;0.13;;;0.90;99.90;;;;;;5028215;28;20079;-79
2021/12/10 06:15:02;;;;;;;0.10;0.10;;;0.90;99.90;;;;;;5022010;28;20759;-78
2021/12/10 06:17:28;;;;;;;0.10;0.10;;;1.00;99.90;;;;;;5026072;28;20781;-78
2021/12/10 06:19:54;;;;;;;0.10;0.10;;;1.00;99.90;;;;;;5025874;28;20025;-78
2021/12/10 06:22:20;;;;;;;0.10;0.10;;;1.00;99.90;;;;;;5014631;28;20029;-77
2021/12/10 06:24:45;;;;;;;0.10;0.10;;;1.10;99.90;;;;;;5018460;28;20033;-78
2021/12/10 06:27:11;;;;;;;0.10;0.10;;;1.00;99.90;;;;;;5013682;28;20053;-78
2021/12/10 06:29:41;;;;;;;0.10;0.10;;;1.00;99.90;;;;;;5014624;28;20435;-79
2021/12/10 06:32:08;;;;;;;0.10;0.10;;;1.00;99.90;;;;;;5023628;28;20017;-78
2021/12/10 06:34:33;;;;;;;0.10;0.10;;;1.00;99.90;;;;;;5019271;28;20121;-79
2021/12/10 06:36:59;;;;;;;0.10;0.10;;;1.10;99.90;;;;;;5018340;28;20104;-78
2021/12/10 06:39:25;;;;;;;0.10;0.10;;;1.10;99.90;;;;;;5025411;28;20315;-79
2021/12/10 06:41:52;;;;;;;0.10;0.10;;;1.10;99.90;;;;;;5029435;28;20104;-77
2021/12/10 06:44:18;;;;;;;0.43;0.43;;;1.10;99.90;;;;;;5029556;28;20031;-79
2021/12/10 06:46:44;;;;;;;0.10;0.10;;;1.10;99.90;;;;;;5019327;28;20052;-78
2021/12/10 06:49:11;;;;;;;0.10;0.10;;;1.10;99.90;;;;;;5025727;28;20376;-78
2021/12/10 06:51:36;;;;;;;0.10;0.10;;;1.00;99.90;;;;;;5012460;28;20041;-78
2021/12/10 06:54:02;;;;;;;0.10;0.10;;;1.00;99.90;;;;;;5009493;28;20121;-79
2021/12/10 06:56:29;;;;;;;0.10;0.10;;;1.00;99.90;;;;;;5018528;28;20025;-77
2021/12/10 06:58:55;;;;;;;0.10;0.10;;;1.00;99.90;;;;;;5013910;28;20420;-78
2021/12/10 07:01:31;;;;;;;0.10;0.10;;;1.00;99.90;;;;;;5027392;28;20096;-78
2021/12/10 07:03:58;;;;;;;0.10;0.10;;;1.00;99.90;;;;;;5028309;28;20391;-79
2021/12/10 07:06:27;;;;;;;0.10;0.10;;;1.00;99.90;;;;;;5030045;28;20112;-78
2021/12/10 07:08:54;;;;;;;0.10;0.10;;;1.00;99.90;;;;;;5029465;28;20026;-79
2021/12/10 07:11:21;;;;;;;0.10;0.10;;;1.00;99.90;;;;;;5011575;28;20106;-79
2021/12/10 07:13:50;;;;;;;0.73;0.73;;;1.00;99.90;;;;;;5019482;28;20364;-78
2021/12/10 07:16:18;;;;;;;0.10;0.10;;;1.10;99.90;;;;;;5026879;28;20126;-79
2021/12/10 07:18:47;;;;;;;0.10;0.10;;;1.10;99.90;;;;;;5020121;28;20026;-79
2021/12/10 07:21:13;;;;;;;0.10;0.10;;;1.80;99.90;;;;;;5013915;28;20071;-78
2021/12/10 07:23:42;;;;;;;0.10;0.10;;;1.10;99.90;;;;;;5018667;28;20038;-79
2021/12/10 07:26:08;;;;;;;0.10;0.10;;;1.10;99.90;;;;;;5023654;28;20078;-78
2021/12/10 07:28:34;;;;;;;0.10;0.10;;;1.10;99.90;;;;;;5020713;28;20320;-78
2021/12/10 07:31:01;;;;;;;0.10;0.10;;;1.10;99.90;;;;;;5027591;28;20463;-78
2021/12/10 07:33:27;;;;;;;0.10;0.10;;;1.10;99.90;;;;;;5013095;28;20025;-78
2021/12/10 07:35:53;;;;;;;0.10;0.10;;;1.20;99.90;;;;;;5029238;28;20026;-77
2021/12/10 07:38:19;;;;;;;0.10;0.10;;;1.20;99.90;;;;;;5028387;28;20030;-77
2021/12/10 07:40:45;;;;;;;0.10;0.10;;;1.30;99.90;;;;;;5019685;28;20022;-79
2021/12/10 07:43:11;;;;;;;0.10;0.10;;;1.30;99.90;;;;;;5016897;28;20029;-79
2021/12/10 07:45:38;;;;;;;0.10;0.10;;;1.30;99.90;;;;;;5028450;28;20025;-79
2021/12/10 07:48:08;;;;;;;0.10;0.10;;;1.40;99.90;;;;;;5028652;28;20021;-79
2021/12/10 07:50:38;;;;;;;0.10;0.10;;;1.30;99.90;;;;;;5021638;28;20045;-78
2021/12/10 07:53:04;;;;;;;0.10;0.10;;;2.20;99.90;;;;;;5027670;28;20029;-79
2021/12/10 07:55:33;;;;;;;0.10;0.10;;;1.40;99.90;;;;;;5028552;28;20026;-80
2021/12/10 07:58:01;;;;;;;0.10;0.10;;;1.50;99.90;;;;;;5028263;28;20029;-79
2021/12/10 08:00:29;;;;;;;0.22;0.22;;;1.50;99.90;;;;;;5023732;28;20072;-79
2021/12/10 08:02:55;;;;;;;0.10;0.10;;;1.50;99.90;;;;;;5029339;28;20025;-79
2021/12/10 08:05:24;;;;;;;0.10;0.10;;;1.60;99.90;;;;;;5011960;28;20034;-79
2021/12/10 08:07:52;;;;;;;0.30;0.30;;;1.60;99.90;;;;;;5009396;28;20036;-79
2021/12/10 08:10:18;;;;;;;0.10;0.10;;;1.70;99.90;;;;;;5008772;28;20164;-79
2021/12/10 08:12:43;;;;;;;0.10;0.10;;;1.70;99.90;;;;;;5009270;28;20109;-80
2021/12/10 08:15:10;;;;;;;0.10;0.10;;;1.70;99.90;;;;;;5015817;28;20594;-79
2021/12/10 08:17:36;;;;;;;0.10;0.10;;;1.80;99.90;;;;;;5016492;28;20025;-78
2021/12/10 08:20:05;;;;;;;0.10;0.10;;;1.80;99.90;;;;;;5016887;28;20085;-79
2021/12/10 08:22:31;;;;;;;0.95;0.95;;;1.90;99.90;;;;;;5016085;28;20118;-78
2021/12/10 08:24:57;;;;;;;0.10;0.10;;;1.90;99.90;;;;;;5016211;28;20146;-79
2021/12/10 08:27:22;;;;;;;0.10;0.10;;;2.00;99.90;;;;;;5009352;28;20030;-79
2021/12/10 08:29:48;;;;;;;0.10;0.10;;;2.00;99.90;;;;;;5009976;28;20502;-78
2021/12/10 08:32:19;;;;;;;0.10;0.10;;;2.10;99.90;;;;;;5018769;28;20025;-83
2021/12/10 08:34:46;;;;;;;0.10;0.10;;;2.10;99.90;;;;;;5020438;28;20040;-83
2021/12/10 08:37:11;;;;;;;0.10;0.10;;;2.10;99.90;;;;;;5033383;28;20087;-80
2021/12/10 08:39:37;;;;;;;0.10;0.10;;;2.20;99.90;;;;;;5032526;28;20025;-77
2021/12/10 08:42:04;;;;;;;0.10;0.10;;;2.20;99.90;;;;;;5031732;28;20036;-80
2021/12/10 08:44:30;;;;;;;0.10;0.10;;;2.40;99.90;;;;;;5032298;28;20490;-79
2021/12/10 08:46:56;;;;;;;0.10;0.10;;;2.40;99.90;;;;;;5030154;28;20041;-79
2021/12/10 08:49:22;;;;;;;0.10;0.10;;;2.50;99.90;;;;;;5031238;28;20025;-80
2021/12/10 08:51:52;;;;;;;0.20;0.20;;;2.50;99.90;;;;;;5029748;28;20040;-79
2021/12/10 08:54:19;;;;;;;0.10;0.10;;;2.50;99.90;;;;;;5033533;28;20021;-77
2021/12/10 08:56:47;;;;;;;0.10;0.10;;;2.50;99.90;;;;;;5033603;28;20041;-79
2021/12/10 08:59:14;;;;;;;0.10;0.10;;;2.50;99.90;;;;;;5031528;28;20072;-80
2021/12/10 09:01:46;;;;;;;0.10;0.10;;;2.90;99.90;;;;;;5025610;28;20018;-78
2021/12/10 09:04:12;;;;;;;0.10;0.10;;;2.60;99.90;;;;;;5014477;28;20073;-78
2021/12/10 09:06:42;;;;;;;0.10;0.10;;;2.70;99.90;;;;;;5033703;28;20099;-79
2021/12/10 09:09:10;;;;;;;0.30;0.30;;;2.70;99.90;;;;;;5033301;28;20419;-80
2021/12/10 09:11:40;;;;;;;0.10;0.10;;;2.80;99.90;;;;;;5026329;28;20022;-79
2021/12/10 09:14:07;;;;;;;0.50;0.50;;;2.80;99.90;;;;;;5024092;28;20369;-80
2021/12/10 09:16:36;;;;;;;0.15;0.15;;;2.90;99.90;;;;;;5025113;28;20539;-79
2021/12/10 09:19:05;;;;;;;0.10;0.10;;;3.00;99.90;;;;;;5023759;28;20104;-78
2021/12/10 09:21:33;;;;;;;0.10;0.10;;;3.00;99.90;;;;;;5026723;28;20048;-77
2021/12/10 09:24:04;;;;;;;0.10;0.10;;;3.10;99.90;;;;;;5031405;28;20040;-77
2021/12/10 09:26:34;;;;;;;0.10;0.10;;;3.20;99.90;;;;;;5025494;28;20033;-78
2021/12/10 09:29:01;;;;;;;0.82;0.82;;;3.20;99.90;;;;;;5012550;28;20120;-77
2021/12/10 09:31:27;;;;;;;0.20;0.20;;;3.30;99.90;;;;;;5024802;28;20030;-78
2021/12/10 09:33:55;;;;;;;0.10;0.10;;;3.40;99.90;;;;;;5013081;28;20040;-78
2021/12/10 09:36:21;;;;;;;0.10;0.10;;;3.40;99.90;;;;;;5016233;28;20026;-78
2021/12/10 09:38:48;;;;;;;0.10;0.10;;;3.40;99.90;;;;;;5010933;28;20487;-77
2021/12/10 09:41:14;;;;;;;0.10;0.10;;;3.40;99.90;;;;;;5011539;28;20026;-78
2021/12/10 09:43:40;;;;;;;0.10;0.10;;;3.40;99.90;;;;;;5017380;28;20072;-77
2021/12/10 09:46:06;;;;;;;0.10;0.10;;;3.60;99.90;;;;;;5031190;28;20454;-78
2021/12/10 09:48:32;;;;;;;0.10;0.10;;;3.60;99.90;;;;;;5030780;28;20025;-79
2021/12/10 09:51:06;;;;;;;0.10;0.10;;;3.70;99.90;;;;;;5028889;28;20034;-77
2021/12/10 09:53:33;;;;;;;0.10;0.10;;;3.90;99.90;;;;;;5030197;28;20041;-77
2021/12/10 09:56:00;;;;;;;0.10;0.10;;;4.10;99.90;;;;;;5030525;28;20068;-77
2021/12/10 09:58:26;;;;;;;0.10;0.10;;;4.10;99.90;;;;;;5030034;28;20017;-77
2021/12/10 10:00:58;;;;;;;0.10;0.10;;;4.00;99.90;;;;;;5027889;28;20112;-82
2021/12/10 10:03:28;;;;;;;0.40;0.40;;;4.00;99.90;;;;;;5030094;28;20091;-78
2021/12/10 10:05:54;;;;;;;0.10;0.10;;;4.00;99.90;;;;;;5029209;28;20558;-77
2021/12/10 10:08:25;;;;;;;0.10;0.10;;;4.00;99.90;;;;;;5016965;28;20052;-77
2021/12/10 10:10:55;;;;;;;0.10;0.10;;;4.00;99.90;;;;;;5027282;28;20037;-77
2021/12/10 10:13:26;;;;;;;0.10;0.10;;;4.00;99.90;;;;;;5020983;28;20069;-78
2021/12/10 10:15:57;;;;;;;0.10;0.10;;;4.10;99.90;;;;;;5018773;28;20374;-78
2021/12/10 10:18:25;;;;;;;0.10;0.10;;;4.20;99.90;;;;;;5030386;28;20048;-78
2021/12/10 10:20:56;;;;;;;0.10;0.10;;;4.30;99.90;;;;;;5010153;28;20243;-77
2021/12/10 10:23:24;;;;;;;0.10;0.10;;;4.40;99.90;;;;;;5029910;28;20025;-79
2021/12/10 10:25:52;;;;;;;0.10;0.10;;;4.40;99.90;;;;;;5030559;28;20051;-77
2021/12/10 10:28:19;;;;;;;0.10;0.10;;;4.40;99.90;;;;;;5029800;28;20732;-77
2021/12/10 10:30:56;;;;;;;0.10;0.10;;;4.50;99.90;;;;;;5028524;28;20037;-78
2021/12/10 10:33:23;;;;;;;0.10;0.10;;;4.40;99.90;;;;;;5029602;28;20037;-77
2021/12/10 10:35:53;;;;;;;0.40;0.40;;;4.30;99.90;;;;;;5027287;28;20398;-76
2021/12/10 10:38:20;;;;;;;0.10;0.10;;;4.30;99.90;;;;;;5031005;28;20017;-77
2021/12/10 10:40:52;;;;;;;0.10;0.10;;;4.20;99.90;;;;;;5026144;28;20018;-78
2021/12/10 10:43:19;;;;;;;0.10;0.10;;;4.20;99.90;;;;;;5022983;28;20110;-78
2021/12/10 10:45:45;;;;;;;0.10;0.10;;;4.20;99.90;;;;;;5017943;28;20034;-79
2021/12/10 10:48:13;;;;;;;0.10;0.10;;;4.30;99.90;;;;;;5021832;28;20037;-78
2021/12/10 10:51:10;;;;;;;0.10;0.10;;;4.40;99.90;;;;;;5009583;28;20029;-78
2021/12/10 10:53:44;;;;;;;0.10;0.10;;;4.50;99.90;;;;;;5011113;28;20345;-74
2021/12/10 10:56:15;;;;;;;0.10;0.10;;;4.50;99.90;;;;;;5022517;28;20105;-76
2021/12/10 10:59:02;;;;;;;0.10;0.10;;;4.50;99.90;;;;;;5029187;28;20049;-77
2021/12/10 11:01:35;;;;;;;0.10;0.10;;;4.50;99.90;;;;;;5007895;28;20033;-77
2021/12/10 11:04:16;;;;;;;0.10;0.10;;;4.60;99.90;;;;;;5014138;28;20045;-76
2021/12/10 11:06:46;;;;;;;0.10;0.10;;;4.60;99.90;;;;;;5016400;28;20026;-74
2021/12/10 11:09:13;;;;;;;0.10;0.10;;;4.70;99.90;;;;;;5017435;28;20026;-76
2021/12/10 11:11:50;;;;;;;0.10;0.10;;;4.50;99.90;;;;;;5011995;28;20068;-76
2021/12/10 11:14:16;;;;;;;0.10;0.10;;;4.50;99.90;;;;;;5021763;28;20458;-76
2021/12/10 11:16:45;;;;;;;0.10;0.10;;;4.50;99.90;;;;;;5041876;23;20316;-80
2021/12/10 11:19:22;;;;;;;0.10;0.10;;;4.50;99.90;;;;;;5026663;28;20029;-79
2021/12/10 11:21:53;;;;;;;0.10;0.10;;;4.50;99.90;;;;;;5024468;28;20103;-79
2021/12/10 11:24:35;;;;;;;0.10;0.10;;;4.70;99.90;;;;;;5007171;28;20491;-79
2021/12/10 11:27:12;;;;;;;0.10;0.10;;;4.70;99.90;;;;;;5009207;28;20037;-81
2021/12/10 11:29:37;;;;;;;0.10;0.10;;;4.70;99.90;;;;;;5009425;28;20029;-78
2021/12/10 11:32:09;;;;;;;0.10;0.10;;;4.70;99.90;;;;;;5009656;28;20368;-77
2021/12/10 11:34:40;;;;;;;0.10;0.10;;;4.70;99.90;;;;;;5009203;28;20037;-77
2021/12/10 11:37:06;;;;;;;0.10;0.10;;;4.70;99.90;;;;;;5024344;28;20025;-77
2021/12/10 11:39:42;;;;;;;0.10;0.10;;;4.70;99.90;;;;;;5029007;28;20471;-79
2021/12/10 11:42:39;;;;;;;0.10;0.10;;;4.70;99.90;;;;;;5021555;28;20025;-77
2021/12/10 11:45:28;;;;;;;0.10;0.10;;;4.50;99.90;;;;;;5019971;28;20511;-78
2021/12/10 11:47:54;;;;;;;0.10;0.10;;;4.30;99.90;;;;;;5008706;28;20033;-78
2021/12/10 11:50:22;;;;;;;0.10;0.10;;;4.20;99.90;;;;;;5009030;28;20024;-76
2021/12/10 11:53:08;;;;;;;0.10;0.10;;;4.10;99.90;;;;;;5008552;28;20038;-77
2021/12/10 11:55:35;;;;;;;0.10;0.10;;;4.10;99.90;;;;;;5009464;28;20488;-76
2021/12/10 11:58:03;;;;;;;0.10;0.10;;;3.80;99.90;;;;;;5009171;28;20034;-77
2021/12/10 12:00:33;;;;;;;0.10;0.10;;;3.60;99.90;;;;;;5025560;28;20009;-76
2021/12/10 12:03:06;;;;;;;0.10;0.10;;;3.40;99.90;;;;;;5023387;28;20033;-77
2021/12/10 12:05:40;;;;;;;0.10;0.10;;;3.20;99.90;;;;;;5021097;28;20025;-77
2021/12/10 12:08:09;;;;;;;0.10;0.10;;;3.00;99.90;;;;;;5027882;28;20076;-78
2021/12/10 12:10:43;;;;;;;0.10;0.10;;;2.90;99.90;;;;;;5020924;28;20033;-77
2021/12/10 12:15:54;;;;;;;0.10;0.10;;;3.20;99.90;;;;;;5032901;28;20025;-76
2021/12/10 12:18:22;;;;;;;0.10;0.10;;;3.20;99.90;;;;;;5031675;28;20030;-77
2021/12/10 12:21:37;;;;;;;0.10;0.10;;;3.20;99.90;;;;;;5031901;28;20064;-77
2021/12/10 12:26:32;;;;;;;0.10;0.10;;;3.20;99.90;;;;;;5032659;28;20037;-78
2021/12/10 12:29:05;;;;;;;0.10;0.10;;;3.20;99.90;;;;;;5013688;28;20034;-76
2021/12/10 12:31:41;;;;;;;0.10;0.10;;;3.90;99.90;;;;;;5011691;28;20041;-76
2021/12/10 12:34:15;;;;;;;0.10;0.10;;;3.30;99.90;;;;;;5012088;28;20045;-75
2021/12/10 12:36:49;;;;;;;0.10;0.10;;;3.30;99.90;;;;;;5026394;28;20028;-77
2021/12/10 12:40:05;;;;;;;0.10;0.10;;;3.30;99.90;;;;;;5032024;28;20168;-77
2021/12/10 12:42:34;;;;;;;0.10;0.10;;;3.20;99.90;;;;;;5026944;28;20080;-76
2021/12/10 12:45:01;;;;;;;0.10;0.10;;;3.20;99.90;;;;;;5029265;28;20160;-75
2021/12/10 12:47:36;;;;;;;0.10;0.10;;;3.20;99.90;;;;;;5029287;28;20068;-75
2021/12/10 12:50:12;;;;;;;0.10;0.10;;;3.30;99.90;;;;;;5028580;28;20026;-75
2021/12/10 12:52:45;;;;;;;0.10;0.10;;;3.40;99.90;;;;;;5027990;28;20056;-76
2021/12/10 12:55:16;;;;;;;;;;;3.50;99.90;;;;;;5029370;28;20478;-76
2021/12/10 12:57:54;;;;;;;0.10;0.10;;;3.50;99.90;;;;;;5020826;28;19921;-75
2021/12/10 13:00:37;;;;;;;0.10;0.10;;;3.50;99.90;;;;;;5017775;28;20033;-76
2021/12/10 13:03:10;;;;;;;0.40;0.40;;;3.40;99.90;;;;;;5018794;28;20029;-76
2021/12/10 13:05:52;;;;;;;0.10;0.10;;;3.40;99.90;;;;;;5020628;28;20022;-75
2021/12/10 13:08:21;;;;;;;0.10;0.10;;;3.60;99.90;;;;;;5028453;28;20100;-77
2021/12/10 13:11:01;;;;;;;0.10;0.10;;;3.60;99.90;;;;;;5028565;28;20109;-75
2021/12/10 13:13:32;;;;;;;0.10;0.10;;;3.60;99.90;;;;;;5030420;28;20060;-75
2021/12/10 13:15:58;;;;;;;0.10;0.10;;;3.80;99.90;;;;;;5017766;28;20540;-76
2021/12/10 13:18:24;;;;;;;0.10;0.10;;;3.80;99.90;;;;;;5010008;28;20125;-76